createdAt,value
2022-11-20T00:01:12.320Z,-3.1
2022-11-20T00:04:12.317Z,-3.1
2022-11-20T00:07:12.370Z,-3
2022-11-20T00:10:12.323Z,-3.1
2022-11-20T00:13:12.327Z,-3
2022-11-20T00:16:12.324Z,-3
2022-11-20T00:19:12.329Z,-3
2022-11-20T00:22:12.331Z,-3
2022-11-20T00:25:12.357Z,-3
2022-11-20T00:28:12.341Z,-3
2022-11-20T00:31:12.339Z,-3
2022-11-20T00:34:12.341Z,-3
2022-11-20T00:37:12.345Z,-3
2022-11-20T00:40:12.356Z,-3
2022-11-20T00:43:12.470Z,-3
2022-11-20T00:46:12.365Z,-3
2022-11-20T00:49:12.366Z,-3
2022-11-20T00:52:12.376Z,-3
2022-11-20T00:55:12.383Z,-3
2022-11-20T00:58:14.372Z,-3.1
2022-11-20T01:01:12.469Z,-3
2022-11-20T01:04:12.403Z,-3
2022-11-20T01:07:12.445Z,-3.1
2022-11-20T01:10:12.417Z,-3
2022-11-20T01:13:12.428Z,-3
2022-11-20T01:16:12.427Z,-3
2022-11-20T01:19:16.029Z,-3.1
2022-11-20T01:22:12.442Z,-3.1
2022-11-20T01:25:12.449Z,-3.1
2022-11-20T01:28:12.457Z,-3.2
2022-11-20T01:31:12.462Z,-3.2
2022-11-20T01:34:12.471Z,-3.2
2022-11-20T01:37:12.479Z,-3.2
2022-11-20T01:40:12.490Z,-3.2
2022-11-20T01:43:12.492Z,-3.2
2022-11-20T01:46:12.498Z,-3.2
2022-11-20T01:49:12.501Z,-3.2
2022-11-20T01:52:12.511Z,-3.2
2022-11-20T01:55:12.520Z,-3.2
2022-11-20T01:58:12.529Z,-3.2
2022-11-20T02:01:12.604Z,-3.2
2022-11-20T02:04:12.549Z,-3.2
2022-11-20T02:07:12.590Z,-3.2
2022-11-20T02:10:12.561Z,-3.1
2022-11-20T02:13:12.567Z,-3.1
2022-11-20T02:16:12.578Z,-3.1
2022-11-20T02:19:12.587Z,-3.1
2022-11-20T02:22:12.593Z,-3.1
2022-11-20T02:25:12.604Z,-3.1
2022-11-20T02:28:12.612Z,-3.1
2022-11-20T02:31:12.636Z,-3.1
2022-11-20T02:34:12.631Z,-3.1
2022-11-20T02:37:12.632Z,-3.1
2022-11-20T02:40:12.645Z,-3.1
2022-11-20T02:43:12.660Z,-3.1
2022-11-20T02:46:12.661Z,-3.1
2022-11-20T02:49:12.668Z,-3.1
2022-11-20T02:52:12.682Z,-3.2
2022-11-20T02:55:12.685Z,-3.2
2022-11-20T02:58:12.711Z,-3.2
2022-11-20T03:01:12.771Z,-3.2
2022-11-20T03:04:12.721Z,-3.2
2022-11-20T03:07:12.755Z,-3.2
2022-11-20T03:10:12.730Z,-3.2
2022-11-20T03:13:12.736Z,-3.2
2022-11-20T03:16:12.751Z,-3.2
2022-11-20T03:19:12.757Z,-3.2
2022-11-20T03:22:12.766Z,-3.2
2022-11-20T03:25:12.771Z,-3.2
2022-11-20T03:28:12.771Z,-3.2
2022-11-20T03:31:12.790Z,-3.2
2022-11-20T03:34:12.787Z,-3.2
2022-11-20T03:37:12.795Z,-3.2
2022-11-20T03:40:12.801Z,-3.2
2022-11-20T03:43:12.809Z,-3.3
2022-11-20T03:46:12.822Z,-3.3
2022-11-20T03:49:12.828Z,-3.3
2022-11-20T03:52:12.834Z,-3.4
2022-11-20T03:55:12.842Z,-3.4
2022-11-20T03:58:12.853Z,-3.4
2022-11-20T04:01:12.861Z,-3.4
2022-11-20T04:04:12.869Z,-3.3
2022-11-20T04:07:12.910Z,-3.3
2022-11-20T04:10:12.884Z,-3.4
2022-11-20T04:13:12.887Z,-3.4
2022-11-20T04:16:12.892Z,-3.4
2022-11-20T04:19:12.904Z,-3.4
2022-11-20T04:22:12.907Z,-3.4
2022-11-20T04:25:12.917Z,-3.4
2022-11-20T04:28:12.926Z,-3.4
2022-11-20T04:31:12.930Z,-3.4
2022-11-20T04:34:12.945Z,-3.4
2022-11-20T04:37:12.954Z,-3.4
2022-11-20T04:40:12.956Z,-3.4
2022-11-20T04:43:12.964Z,-3.4
2022-11-20T04:46:12.972Z,-3.4
2022-11-20T04:49:13.099Z,-3.3
2022-11-20T04:52:12.986Z,-3.3
2022-11-20T04:55:12.998Z,-3.3
2022-11-20T04:58:13.001Z,-3.3
2022-11-20T05:01:13.067Z,-3.3
2022-11-20T05:04:13.022Z,-3.3
2022-11-20T05:07:13.066Z,-3.3
2022-11-20T05:10:13.046Z,-3.3
2022-11-20T05:13:13.043Z,-3.2
2022-11-20T05:16:13.054Z,-3.2
2022-11-20T05:19:13.067Z,-3.2
2022-11-20T05:22:13.073Z,-3.2
2022-11-20T05:25:13.087Z,-3.2
2022-11-20T05:28:13.096Z,-3.1
2022-11-20T05:31:13.107Z,-3.1
2022-11-20T05:34:13.119Z,-3.1
2022-11-20T05:37:13.131Z,-3.1
2022-11-20T05:40:13.143Z,-3.1
2022-11-20T05:43:13.155Z,-3.1
2022-11-20T05:46:13.155Z,-3.1
2022-11-20T05:49:13.162Z,-3.1
2022-11-20T05:52:13.172Z,-3.2
2022-11-20T05:55:13.188Z,-3.1
2022-11-20T05:58:13.192Z,-3.2
2022-11-20T06:01:13.200Z,-3.2
2022-11-20T06:04:13.213Z,-3.3
2022-11-20T06:07:13.256Z,-3.3
2022-11-20T06:10:13.245Z,-3.3
2022-11-20T06:13:13.249Z,-3.3
2022-11-20T06:16:13.259Z,-3.3
2022-11-20T06:19:13.269Z,-3.3
2022-11-20T06:22:13.275Z,-3.3
2022-11-20T06:25:13.289Z,-3.3
2022-11-20T06:28:13.299Z,-3.3
2022-11-20T06:31:13.312Z,-3.3
2022-11-20T06:34:13.322Z,-3.3
2022-11-20T06:37:13.336Z,-3.3
2022-11-20T06:40:13.341Z,-3.2
2022-11-20T06:43:13.354Z,-3.2
2022-11-20T06:46:13.371Z,-3.2
2022-11-20T06:49:13.377Z,-3.3
2022-11-20T06:52:13.392Z,-3.3
2022-11-20T06:55:13.403Z,-3.3
2022-11-20T06:58:13.412Z,-3.3
2022-11-20T07:01:13.575Z,-3.3
2022-11-20T07:04:13.438Z,-3.3
2022-11-20T07:07:13.514Z,-3.2
2022-11-20T07:10:13.455Z,-3.2
2022-11-20T07:13:13.471Z,-3.2
2022-11-20T07:16:13.480Z,-3.2
2022-11-20T07:19:13.495Z,-3.2
2022-11-20T07:22:13.518Z,-3.2
2022-11-20T07:25:13.517Z,-3.1
2022-11-20T07:28:13.529Z,-3.2
2022-11-20T07:31:18.680Z,-3.2
2022-11-20T07:34:13.549Z,-3.2
2022-11-20T07:37:13.563Z,-3.2
2022-11-20T07:40:13.579Z,-3.1
2022-11-20T07:43:13.588Z,-3.1
2022-11-20T07:46:13.600Z,-3
2022-11-20T07:49:13.614Z,-3
2022-11-20T07:52:13.631Z,-3
2022-11-20T07:55:13.639Z,-3
2022-11-20T07:58:13.651Z,-2.9
2022-11-20T08:01:13.723Z,-2.9
2022-11-20T08:04:13.679Z,-3
2022-11-20T08:07:13.745Z,-2.9
2022-11-20T08:10:13.713Z,-3
2022-11-20T08:13:13.722Z,-3.1
2022-11-20T08:16:13.743Z,-3.1
2022-11-20T08:19:13.749Z,-3.2
2022-11-20T08:22:13.761Z,-3.1
2022-11-20T08:25:13.777Z,-3.1
2022-11-20T08:28:20.615Z,-3.1
2022-11-20T08:31:13.798Z,-3.1
2022-11-20T08:34:17.741Z,-3
2022-11-20T08:37:13.826Z,-3.1
2022-11-20T08:40:18.417Z,-3.2
2022-11-20T08:43:13.857Z,-3.2
2022-11-20T08:46:13.864Z,-3.3
2022-11-20T08:49:13.884Z,-3.3
2022-11-20T08:52:13.896Z,-3.3
2022-11-20T08:55:13.917Z,-3.3
2022-11-20T08:58:13.930Z,-3.3
2022-11-20T09:01:13.986Z,-3.4
2022-11-20T09:04:13.959Z,-3.3
2022-11-20T09:07:13.989Z,-3.3
2022-11-20T09:10:23.891Z,-3.2
2022-11-20T09:13:14.005Z,-3.2
2022-11-20T09:16:14.020Z,-3.3
2022-11-20T09:19:34.402Z,-3.2
2022-11-20T09:22:14.047Z,-3.2
2022-11-20T09:25:14.065Z,-3.2
2022-11-20T09:28:14.088Z,-3.2
2022-11-20T09:31:14.100Z,-3.2
2022-11-20T09:34:14.119Z,-3.1
2022-11-20T09:37:14.130Z,-3.1
2022-11-20T09:40:14.148Z,-2.9
2022-11-20T09:43:14.162Z,-2.7
2022-11-20T09:46:14.173Z,-2.7
2022-11-20T09:49:14.194Z,-2.8
2022-11-20T09:52:14.212Z,-2.9
2022-11-20T09:55:14.227Z,-2.9
2022-11-20T09:58:14.244Z,-2.7
2022-11-20T10:01:14.368Z,-2.7
2022-11-20T10:04:14.279Z,-2.7
2022-11-20T10:10:14.306Z,-2.7
2022-11-20T10:13:14.324Z,-2.7
2022-11-20T10:16:14.341Z,-2.6
2022-11-20T10:19:14.364Z,-2.5
2022-11-20T10:22:14.376Z,-2.5
2022-11-20T10:25:14.389Z,-2.5
2022-11-20T10:28:14.408Z,-2.4
2022-11-20T10:31:14.424Z,-2.2
2022-11-20T10:34:17.025Z,-2.2
2022-11-20T10:37:14.457Z,-2.3
2022-11-20T10:40:14.478Z,-2.4
2022-11-20T10:43:14.495Z,-2.5
2022-11-20T10:46:14.519Z,-2.7
2022-11-20T10:49:14.535Z,-2.6
2022-11-20T10:52:14.548Z,-2.7
2022-11-20T10:55:14.573Z,-2.7
2022-11-20T10:58:14.583Z,-2.6
2022-11-20T11:01:14.688Z,-2.6
2022-11-20T11:04:14.619Z,-2.6
2022-11-20T11:07:14.681Z,-2.5
2022-11-20T11:10:14.757Z,-2.4
2022-11-20T11:13:14.676Z,-2.4
2022-11-20T11:16:14.695Z,-2.5
2022-11-20T11:19:14.709Z,-2.6
2022-11-20T11:22:14.725Z,-2.5
2022-11-20T11:25:14.744Z,-2.6
2022-11-20T11:28:14.763Z,-2.4
2022-11-20T11:31:14.773Z,-2.3
2022-11-20T11:34:14.835Z,-2.3
2022-11-20T11:37:14.850Z,-2.3
2022-11-20T11:40:28.270Z,-2.3
2022-11-20T11:43:14.874Z,-2.3
2022-11-20T11:46:14.875Z,-2.3
2022-11-20T11:49:14.894Z,-2.4
2022-11-20T11:52:14.903Z,-2.3
2022-11-20T11:55:14.899Z,-2.3
2022-11-20T11:58:14.894Z,-2.3
2022-11-20T12:01:14.890Z,-2.4
2022-11-20T12:04:14.894Z,-2.3
2022-11-20T12:07:39.244Z,-2.3
2022-11-20T12:10:14.895Z,-2.2
2022-11-20T12:13:14.897Z,-2.2
2022-11-20T12:16:14.897Z,-2.2
2022-11-20T12:19:14.902Z,-2.2
2022-11-20T12:22:14.904Z,-2.2
2022-11-20T12:25:14.897Z,-2.2
2022-11-20T12:28:14.903Z,-2.2
2022-11-20T12:31:14.911Z,-2.1
2022-11-20T12:34:14.908Z,-2.2
2022-11-20T12:37:14.913Z,-2.1
2022-11-20T12:40:14.914Z,-2
2022-11-20T12:43:14.908Z,-1.8
2022-11-20T12:46:14.910Z,-1.7
2022-11-20T12:49:14.921Z,-1.6
2022-11-20T12:52:14.911Z,-1.5
2022-11-20T12:55:14.920Z,-1.6
2022-11-20T12:58:14.915Z,-1.6
2022-11-20T13:01:14.929Z,-1.7
2022-11-20T13:04:14.916Z,-1.7
2022-11-20T13:07:14.937Z,-1.7
2022-11-20T13:10:14.918Z,-1.8
2022-11-20T13:13:14.925Z,-1.8
2022-11-20T13:16:14.925Z,-1.9
2022-11-20T13:19:14.928Z,-1.9
2022-11-20T13:22:14.925Z,-1.9
2022-11-20T13:25:16.522Z,-2
2022-11-20T13:28:14.934Z,-2
2022-11-20T13:31:14.938Z,-1.9
2022-11-20T13:34:14.938Z,-1.8
2022-11-20T13:37:14.939Z,-1.7
2022-11-20T13:40:14.944Z,-1.7
2022-11-20T13:43:14.947Z,-1.7
2022-11-20T13:46:14.951Z,-1.7
2022-11-20T13:49:14.949Z,-1.7
2022-11-20T13:52:14.950Z,-1.6
2022-11-20T13:55:14.959Z,-1.7
2022-11-20T13:58:14.953Z,-1.7
2022-11-20T14:01:15.117Z,-1.7
2022-11-20T14:04:14.963Z,-1.7
2022-11-20T14:07:15.006Z,-1.6
2022-11-20T14:10:14.975Z,-1.6
2022-11-20T14:13:14.973Z,-1.7
2022-11-20T14:16:14.980Z,-1.8
2022-11-20T14:19:14.994Z,-1.9
2022-11-20T14:22:14.995Z,-1.9
2022-11-20T14:25:14.999Z,-1.9
2022-11-20T14:28:15.005Z,-1.9
2022-11-20T14:31:15.006Z,-1.9
2022-11-20T14:34:15.005Z,-1.9
2022-11-20T14:37:16.951Z,-1.8
2022-11-20T14:40:15.013Z,-1.8
2022-11-20T14:43:15.017Z,-1.9
2022-11-20T14:46:15.021Z,-1.9
2022-11-20T14:49:15.037Z,-2
2022-11-20T14:52:15.041Z,-2
2022-11-20T14:55:15.044Z,-2
2022-11-20T14:58:15.051Z,-2
2022-11-20T15:01:15.060Z,-2
2022-11-20T15:04:15.103Z,-2
2022-11-20T15:07:15.096Z,-1.9
2022-11-20T15:10:15.085Z,-1.8
2022-11-20T15:13:15.099Z,-1.8
2022-11-20T15:16:15.092Z,-1.7
2022-11-20T15:19:15.416Z,-1.7
2022-11-20T15:22:15.107Z,-1.7
2022-11-20T15:25:15.121Z,-1.7
2022-11-20T15:28:15.131Z,-1.7
2022-11-20T15:31:15.139Z,-1.7
2022-11-20T15:34:15.142Z,-1.6
2022-11-20T15:37:15.154Z,-1.7
2022-11-20T15:40:15.162Z,-1.6
2022-11-20T15:43:15.171Z,-1.7
2022-11-20T15:46:15.174Z,-1.7
2022-11-20T15:49:15.183Z,-1.7
2022-11-20T15:52:15.190Z,-1.7
2022-11-20T15:55:15.205Z,-1.7
2022-11-20T15:58:15.214Z,-1.7
2022-11-20T16:01:15.280Z,-1.7
2022-11-20T16:04:15.340Z,-1.7
2022-11-20T16:07:15.299Z,-1.7
2022-11-20T16:10:15.248Z,-1.7
2022-11-20T16:13:15.257Z,-1.7
2022-11-20T16:16:15.265Z,-1.7
2022-11-20T16:19:15.269Z,-1.7
2022-11-20T16:22:15.278Z,-1.7
2022-11-20T16:25:15.292Z,-1.7
2022-11-20T16:28:18.753Z,-1.7
2022-11-20T16:31:15.300Z,-1.8
2022-11-20T16:34:15.311Z,-1.8
2022-11-20T16:37:15.316Z,-1.8
2022-11-20T16:40:15.322Z,-1.8
2022-11-20T16:43:15.328Z,-1.8
2022-11-20T16:46:15.343Z,-1.8
2022-11-20T16:49:15.353Z,-1.9
2022-11-20T16:52:15.359Z,-2
2022-11-20T16:55:15.368Z,-2.2
2022-11-20T16:58:15.389Z,-2.3
2022-11-20T17:01:15.421Z,-2.4
2022-11-20T17:04:15.394Z,-2.4
2022-11-20T17:07:15.427Z,-2.5
2022-11-20T17:10:15.403Z,-2.6
2022-11-20T17:13:15.411Z,-2.7
2022-11-20T17:16:15.415Z,-2.8
2022-11-20T17:19:15.424Z,-2.9
2022-11-20T17:22:15.422Z,-2.9
2022-11-20T17:25:15.438Z,-3
2022-11-20T17:28:15.435Z,-3
2022-11-20T17:31:15.444Z,-3.1
2022-11-20T17:34:15.453Z,-3.2
2022-11-20T17:37:15.512Z,-3.3
2022-11-20T17:40:15.459Z,-3.4
2022-11-20T17:43:15.463Z,-3.5
2022-11-20T17:46:15.463Z,-3.5
2022-11-20T17:49:16.947Z,-3.5
2022-11-20T17:52:15.471Z,-3.6
2022-11-20T17:55:15.477Z,-3.7
2022-11-20T17:58:15.478Z,-3.6
2022-11-20T18:01:15.495Z,-3.5
2022-11-20T18:04:15.492Z,-3.5
2022-11-20T18:07:15.502Z,-3.4
2022-11-20T18:10:15.494Z,-3.4
2022-11-20T18:13:15.488Z,-3.4
2022-11-20T18:16:15.493Z,-3.4
2022-11-20T18:19:15.498Z,-3.4
2022-11-20T18:22:15.500Z,-3.4
2022-11-20T18:25:15.497Z,-3.4
2022-11-20T18:28:15.509Z,-3.4
2022-11-20T18:31:15.537Z,-3.5
2022-11-20T18:34:15.534Z,-3.6
2022-11-20T18:37:15.545Z,-3.6
2022-11-20T18:40:15.560Z,-3.6
2022-11-20T18:43:15.592Z,-3.6
2022-11-20T18:46:15.583Z,-3.6
2022-11-20T18:49:15.594Z,-3.6
2022-11-20T18:52:15.604Z,-3.6
2022-11-20T18:55:15.619Z,-3.6
2022-11-20T18:58:15.631Z,-3.6
2022-11-20T19:01:15.677Z,-3.6
2022-11-20T19:04:15.656Z,-3.7
2022-11-20T19:07:15.732Z,-3.9
2022-11-20T19:10:15.685Z,-4
2022-11-20T19:13:15.691Z,-4.1
2022-11-20T19:16:15.714Z,-4.1
2022-11-20T19:19:15.725Z,-4.2
2022-11-20T19:22:15.735Z,-4.3
2022-11-20T19:25:15.742Z,-4.3
2022-11-20T19:28:15.756Z,-4.4
2022-11-20T19:31:18.135Z,-4.4
2022-11-20T19:34:15.789Z,-4.2
2022-11-20T19:37:15.797Z,-4.2
2022-11-20T19:40:15.811Z,-4.3
2022-11-20T19:43:15.825Z,-4.2
2022-11-20T19:46:15.836Z,-4.1
2022-11-20T19:49:15.843Z,-4.1
2022-11-20T19:52:15.857Z,-4
2022-11-20T19:55:15.869Z,-4
2022-11-20T19:58:15.876Z,-3.9
2022-11-20T20:01:16.067Z,-3.8
2022-11-20T20:04:15.887Z,-3.7
2022-11-20T20:07:15.936Z,-3.6
2022-11-20T20:10:15.906Z,-3.5
2022-11-20T20:13:15.914Z,-3.5
2022-11-20T20:16:15.921Z,-3.4
2022-11-20T20:19:15.932Z,-3.3
2022-11-20T20:22:15.932Z,-3.3
2022-11-20T20:25:15.941Z,-3.2
2022-11-20T20:28:15.972Z,-3.1
2022-11-20T20:31:15.957Z,-3
2022-11-20T20:34:15.960Z,-3
2022-11-20T20:37:15.962Z,-3
2022-11-20T20:40:15.975Z,-2.9
2022-11-20T20:43:15.981Z,-2.9
2022-11-20T20:46:15.987Z,-2.9
2022-11-20T20:49:15.996Z,-2.8
2022-11-20T20:52:15.998Z,-2.8
2022-11-20T20:55:16.009Z,-2.8
2022-11-20T20:58:16.019Z,-2.7
2022-11-20T21:01:16.084Z,-2.7
2022-11-20T21:04:16.042Z,-2.6
2022-11-20T21:07:16.093Z,-2.5
2022-11-20T21:10:18.781Z,-2.5
2022-11-20T21:13:16.085Z,-2.5
2022-11-20T21:16:16.097Z,-2.5
2022-11-20T21:19:16.110Z,-2.4
2022-11-20T21:22:16.126Z,-2.4
2022-11-20T21:25:16.136Z,-2.4
2022-11-20T21:28:18.303Z,-2.4
2022-11-20T21:31:16.164Z,-2.3
2022-11-20T21:34:16.177Z,-2.3
2022-11-20T21:37:16.188Z,-2.3
2022-11-20T21:40:16.203Z,-2.3
2022-11-20T21:43:16.214Z,-2.3
2022-11-20T21:46:16.224Z,-2.3
2022-11-20T21:49:16.243Z,-2.3
2022-11-20T21:52:16.259Z,-2.3
2022-11-20T21:55:16.271Z,-2.3
2022-11-20T21:58:16.291Z,-2.3
2022-11-20T22:01:16.315Z,-2.2
2022-11-20T22:04:16.316Z,-2.3
2022-11-20T22:07:16.321Z,-2.3
2022-11-20T22:10:18.601Z,-2.3
2022-11-20T22:13:16.359Z,-2.3
2022-11-20T22:16:16.367Z,-2.3
2022-11-20T22:19:16.381Z,-2.3
2022-11-20T22:22:16.401Z,-2.3
2022-11-20T22:25:16.409Z,-2.3
2022-11-20T22:28:16.434Z,-2.3
2022-11-20T22:31:16.433Z,-2.3
2022-11-20T22:34:16.455Z,-2.3
2022-11-20T22:37:16.468Z,-2.4
2022-11-20T22:40:16.481Z,-2.4
2022-11-20T22:43:16.492Z,-2.3
2022-11-20T22:46:16.515Z,-2.3
2022-11-20T22:49:16.531Z,-2.3
2022-11-20T22:52:16.547Z,-2.3
2022-11-20T22:55:16.638Z,-2.3
2022-11-20T22:58:16.575Z,-2.3
2022-11-20T23:01:16.604Z,-2.3
2022-11-20T23:04:16.610Z,-2.3
2022-11-20T23:07:16.672Z,-2.3
2022-11-20T23:10:16.643Z,-2.3
2022-11-20T23:13:16.653Z,-2.3
2022-11-20T23:16:16.673Z,-2.3
2022-11-20T23:19:16.683Z,-2.3
2022-11-20T23:22:16.696Z,-2.3
2022-11-20T23:25:16.699Z,-2.3
2022-11-20T23:28:16.703Z,-2.3
2022-11-20T23:31:16.707Z,-2.3
2022-11-20T23:34:16.711Z,-2.3
2022-11-20T23:37:16.710Z,-2.2
2022-11-20T23:40:16.715Z,-2.2
2022-11-20T23:43:16.713Z,-2.2
2022-11-20T23:46:17.117Z,-2.3
2022-11-20T23:49:16.725Z,-2.2
2022-11-20T23:52:16.726Z,-2.3
2022-11-20T23:55:16.728Z,-2.2
2022-11-20T23:58:16.728Z,-2.3
